createdAt,value
2019-03-30T00:02:22.193Z,81.13
2019-03-30T00:04:50.920Z,81.21
2019-03-30T00:07:19.645Z,81.41
2019-03-30T00:09:48.522Z,81.53
2019-03-30T00:12:17.262Z,81.39
2019-03-30T00:14:45.995Z,81.21
2019-03-30T00:17:14.995Z,81.02
2019-03-30T00:19:43.726Z,80.83
2019-03-30T00:22:12.439Z,80.03
2019-03-30T00:24:41.419Z,79.55
2019-03-30T00:27:11.062Z,79.22
2019-03-30T00:29:39.783Z,78.79
2019-03-30T00:32:08.549Z,78.04
2019-03-30T00:34:37.263Z,77.87
2019-03-30T00:37:05.985Z,78.63
2019-03-30T00:39:34.775Z,78.62
2019-03-30T00:42:03.499Z,77.99
2019-03-30T00:44:32.224Z,78.26
2019-03-30T00:47:01.010Z,77.46
2019-03-30T00:49:29.725Z,77.44
2019-03-30T00:51:58.445Z,77.55
2019-03-30T00:54:27.300Z,77.39
2019-03-30T00:56:56.010Z,77.59
2019-03-30T00:59:24.721Z,77.42
2019-03-30T01:01:53.986Z,77.12
2019-03-30T01:04:22.698Z,77.30
2019-03-30T01:06:51.422Z,77.20
2019-03-30T01:09:20.181Z,77.03
2019-03-30T01:11:48.896Z,76.67
2019-03-30T01:14:17.718Z,76.77
2019-03-30T01:16:46.616Z,76.46
2019-03-30T01:19:15.342Z,76.31
2019-03-30T01:21:44.060Z,76.73
2019-03-30T01:24:12.820Z,77.36
2019-03-30T01:26:41.543Z,77.25
2019-03-30T01:29:10.267Z,76.84
2019-03-30T01:31:39.040Z,76.71
2019-03-30T01:34:07.759Z,76.85
2019-03-30T01:36:36.483Z,76.98
2019-03-30T01:39:07.456Z,77.51
2019-03-30T01:41:36.174Z,77.36
2019-03-30T01:44:04.997Z,76.52
2019-03-30T01:46:33.750Z,76.73
2019-03-30T01:49:02.479Z,76.76
2019-03-30T01:51:31.208Z,77.09
2019-03-30T01:53:59.974Z,77.48
2019-03-30T01:56:28.698Z,77.48
2019-03-30T01:58:57.428Z,77.51
2019-03-30T02:01:26.613Z,76.65
2019-03-30T02:03:55.402Z,76.97
2019-03-30T02:06:24.130Z,76.97
2019-03-30T02:08:53.104Z,76.87
2019-03-30T02:11:21.828Z,76.70
2019-03-30T02:13:50.552Z,76.51
2019-03-30T02:16:19.753Z,76.17
2019-03-30T02:18:48.480Z,76.48
2019-03-30T02:21:20.535Z,76.78
2019-03-30T02:23:49.586Z,76.40
2019-03-30T02:26:18.319Z,76.12
2019-03-30T02:28:47.045Z,75.79
2019-03-30T02:31:15.896Z,75.50
2019-03-30T02:33:44.621Z,75.01
2019-03-30T02:36:13.449Z,74.88
2019-03-30T02:38:42.226Z,75.20
2019-03-30T02:41:10.954Z,75.27
2019-03-30T02:43:39.672Z,75.81
2019-03-30T02:46:08.439Z,76.04
2019-03-30T02:48:37.160Z,75.72
2019-03-30T02:51:05.881Z,75.61
2019-03-30T02:53:34.691Z,75.36
2019-03-30T02:56:03.418Z,74.68
2019-03-30T02:58:32.143Z,74.97
2019-03-30T03:01:01.324Z,75.63
2019-03-30T03:03:30.049Z,75.25
2019-03-30T03:05:58.777Z,75.21
2019-03-30T03:08:27.662Z,75.54
2019-03-30T03:10:56.386Z,75.59
2019-03-30T03:13:25.121Z,76.26
2019-03-30T03:15:53.886Z,76.56
2019-03-30T03:18:22.611Z,76.90
2019-03-30T03:21:06.494Z,77.68
2019-03-30T03:23:21.819Z,77.56
2019-03-30T03:25:50.565Z,77.99
2019-03-30T03:28:19.280Z,78.46
2019-03-30T03:30:48.050Z,78.65
2019-03-30T03:33:16.765Z,78.18
2019-03-30T03:35:45.495Z,78.37
2019-03-30T03:38:14.682Z,78.31
2019-03-30T03:40:43.424Z,78.12
2019-03-30T03:43:12.136Z,78.17
2019-03-30T03:45:40.936Z,78.92
2019-03-30T03:48:09.665Z,79.33
2019-03-30T03:50:50.885Z,79.02
2019-03-30T03:53:19.617Z,78.91
2019-03-30T03:55:48.754Z,78.96
2019-03-30T03:58:17.814Z,79.42
2019-03-30T04:00:46.865Z,79.83
2019-03-30T04:03:17.639Z,78.93
2019-03-30T04:05:47.636Z,79.01
2019-03-30T04:08:17.002Z,79.33
2019-03-30T04:10:47.397Z,79.56
2019-03-30T04:13:16.374Z,78.73
2019-03-30T04:15:45.101Z,79.51
2019-03-30T04:18:13.925Z,78.70
2019-03-30T04:20:43.030Z,78.95
2019-03-30T04:23:11.756Z,78.79
2019-03-30T04:25:40.475Z,78.71
2019-03-30T04:28:09.288Z,78.67
2019-03-30T04:30:38.023Z,78.61
2019-03-30T04:33:08.013Z,78.14
2019-03-30T04:35:38.075Z,78.56
2019-03-30T04:38:06.809Z,79.08
2019-03-30T04:40:35.536Z,78.89
2019-03-30T04:43:04.420Z,77.99
2019-03-30T04:45:33.151Z,77.71
2019-03-30T04:48:01.864Z,78.06
2019-03-30T04:50:31.034Z,78.03
2019-03-30T04:52:59.760Z,77.30
2019-03-30T04:55:28.487Z,77.23
2019-03-30T04:57:57.752Z,77.48
2019-03-30T05:00:26.772Z,77.46
2019-03-30T05:02:55.492Z,77.67
2019-03-30T05:05:24.285Z,77.35
2019-03-30T05:07:53.088Z,76.69
2019-03-30T05:10:21.857Z,76.72
2019-03-30T05:12:50.749Z,76.33
2019-03-30T05:15:19.477Z,75.68
2019-03-30T05:17:48.319Z,75.96
2019-03-30T05:20:17.264Z,76.00
2019-03-30T05:22:45.991Z,76.33
2019-03-30T05:25:14.718Z,75.63
2019-03-30T05:27:43.568Z,74.81
2019-03-30T05:30:12.800Z,75.11
2019-03-30T05:32:41.991Z,74.26
2019-03-30T05:35:11.000Z,74.03
2019-03-30T05:37:39.721Z,74.20
2019-03-30T05:40:08.642Z,73.22
2019-03-30T05:42:37.814Z,73.18
2019-03-30T05:45:09.902Z,73.75
2019-03-30T05:47:38.626Z,72.68
2019-03-30T05:50:07.892Z,72.60
2019-03-30T05:52:36.632Z,72.61
2019-03-30T05:55:05.963Z,71.23
2019-03-30T05:57:35.088Z,71.85
2019-03-30T06:00:04.709Z,71.41
2019-03-30T06:02:33.436Z,70.82
2019-03-30T06:05:03.772Z,71.67
2019-03-30T06:07:32.719Z,70.59
2019-03-30T06:10:01.452Z,70.40
2019-03-30T06:12:30.262Z,69.66
2019-03-30T06:14:58.986Z,69.02
2019-03-30T06:17:27.714Z,68.06
2019-03-30T06:19:56.489Z,68.89
2019-03-30T06:22:25.219Z,68.57
2019-03-30T06:24:53.949Z,69.30
2019-03-30T06:27:22.809Z,68.93
2019-03-30T06:30:15.373Z,69.01
2019-03-30T06:32:45.688Z,69.40
2019-03-30T06:35:14.401Z,69.49
2019-03-30T06:37:43.129Z,68.39
2019-03-30T06:40:12.121Z,68.36
2019-03-30T06:42:40.851Z,68.04
2019-03-30T06:45:09.674Z,67.15
2019-03-30T06:47:38.463Z,66.67
2019-03-30T06:50:08.184Z,67.01
2019-03-30T06:52:36.903Z,66.81
2019-03-30T06:55:07.051Z,66.38
2019-03-30T06:57:35.774Z,66.20
2019-03-30T07:00:05.405Z,65.69
2019-03-30T07:02:34.265Z,66.24
2019-03-30T07:05:06.239Z,66.41
2019-03-30T07:07:35.271Z,65.62
2019-03-30T07:10:05.384Z,65.30
2019-03-30T07:12:37.022Z,64.51
2019-03-30T07:15:06.055Z,63.65
2019-03-30T07:17:37.861Z,63.57
2019-03-30T07:20:08.014Z,63.63
2019-03-30T07:22:36.763Z,63.40
2019-03-30T07:25:08.243Z,62.94
2019-03-30T07:27:36.960Z,63.08
2019-03-30T07:30:08.633Z,61.71
2019-03-30T07:32:37.481Z,61.31
2019-03-30T07:35:06.806Z,62.06
2019-03-30T07:37:35.530Z,61.62
2019-03-30T07:40:06.522Z,60.86
2019-03-30T07:42:35.258Z,61.24
2019-03-30T07:45:05.297Z,60.70
2019-03-30T07:47:34.076Z,60.51
2019-03-30T07:50:02.798Z,60.04
2019-03-30T07:52:31.529Z,60.87
2019-03-30T07:55:00.487Z,60.92
2019-03-30T07:57:29.224Z,59.91
2019-03-30T07:59:57.945Z,59.45
2019-03-30T08:02:26.705Z,59.35
2019-03-30T08:04:55.434Z,59.19
2019-03-30T08:07:24.166Z,59.45
2019-03-30T08:09:53.040Z,59.08
2019-03-30T08:12:21.921Z,59.34
2019-03-30T08:14:50.647Z,59.52
2019-03-30T08:17:19.536Z,58.29
2019-03-30T08:19:50.375Z,57.88
2019-03-30T08:22:18.709Z,57.26
2019-03-30T08:24:47.872Z,55.62
2019-03-30T08:27:16.606Z,55.70
2019-03-30T08:29:45.338Z,56.53
2019-03-30T08:32:14.143Z,54.66
2019-03-30T08:34:42.882Z,55.72
2019-03-30T08:37:11.610Z,54.26
2019-03-30T08:39:40.595Z,53.98
2019-03-30T08:42:09.329Z,54.64
2019-03-30T08:44:38.054Z,55.01
2019-03-30T08:47:06.830Z,55.18
2019-03-30T08:49:35.558Z,54.95
2019-03-30T08:52:04.291Z,54.03
2019-03-30T08:54:33.085Z,54.38
2019-03-30T08:57:01.826Z,54.04
2019-03-30T08:59:33.404Z,52.82
2019-03-30T09:02:02.554Z,53.52
2019-03-30T09:04:31.281Z,55.56
2019-03-30T09:07:00.024Z,54.05
2019-03-30T09:09:28.788Z,53.53
2019-03-30T09:11:57.526Z,53.92
2019-03-30T09:14:26.275Z,54.29
2019-03-30T09:16:55.037Z,54.28
2019-03-30T09:19:23.932Z,54.75
2019-03-30T09:21:52.670Z,52.92
2019-03-30T09:24:21.558Z,51.79
2019-03-30T09:26:50.329Z,51.30
2019-03-30T09:29:19.043Z,52.17
2019-03-30T09:31:47.899Z,50.15
2019-03-30T09:34:16.642Z,49.92
2019-03-30T09:36:45.481Z,50.67
2019-03-30T09:39:14.683Z,49.65
2019-03-30T09:41:43.415Z,49.34
2019-03-30T09:44:12.146Z,50.60
2019-03-30T09:46:41.108Z,48.55
2019-03-30T09:49:09.844Z,49.62
2019-03-30T09:51:38.580Z,46.72
2019-03-30T09:54:07.360Z,45.50
2019-03-30T09:56:36.087Z,44.68
2019-03-30T09:59:04.819Z,44.39
2019-03-30T10:01:33.595Z,41.83
2019-03-30T10:04:02.332Z,44.14
2019-03-30T10:06:34.642Z,42.46
2019-03-30T10:09:01.569Z,41.38
2019-03-30T10:11:30.299Z,41.42
2019-03-30T10:13:59.053Z,40.15
2019-03-30T10:16:27.929Z,38.64
2019-03-30T10:18:56.672Z,38.37
2019-03-30T10:21:25.404Z,36.78
2019-03-30T10:23:54.633Z,37.22
2019-03-30T10:26:23.360Z,37.92
2019-03-30T10:28:52.090Z,36.72
2019-03-30T10:31:20.878Z,38.79
2019-03-30T10:33:49.618Z,36.23
2019-03-30T10:36:18.332Z,34.84
2019-03-30T10:38:47.164Z,36.04
2019-03-30T10:41:15.889Z,35.09
2019-03-30T10:43:45.666Z,35.64
2019-03-30T10:46:14.564Z,36.95
2019-03-30T10:48:43.293Z,35.64
2019-03-30T10:51:12.023Z,35.57
2019-03-30T10:53:41.166Z,37.84
2019-03-30T10:56:09.900Z,34.19
2019-03-30T10:58:38.630Z,34.99
2019-03-30T11:01:07.646Z,37.63
2019-03-30T11:03:36.374Z,34.39
2019-03-30T11:06:05.114Z,35.34
2019-03-30T11:08:33.966Z,35.87
2019-03-30T11:11:02.719Z,34.21
2019-03-30T11:13:31.951Z,34.37
2019-03-30T11:16:03.987Z,34.27
2019-03-30T11:18:32.508Z,37.98
2019-03-30T11:21:01.365Z,36.86
2019-03-30T11:23:30.627Z,37.09
2019-03-30T11:26:00.759Z,37.53
2019-03-30T11:28:29.963Z,36.09
2019-03-30T11:30:58.836Z,35.19
2019-03-30T11:33:27.570Z,35.26
2019-03-30T11:35:59.147Z,34.32
2019-03-30T11:38:28.017Z,34.14
2019-03-30T11:40:56.767Z,35.66
2019-03-30T11:43:25.492Z,33.75
2019-03-30T11:45:54.472Z,34.80
2019-03-30T11:48:23.196Z,34.05
2019-03-30T11:50:51.933Z,35.72
2019-03-30T11:53:20.826Z,34.32
2019-03-30T11:55:49.554Z,34.08
2019-03-30T11:58:18.286Z,34.58
2019-03-30T12:00:47.166Z,34.90
2019-03-30T12:03:15.905Z,35.70
2019-03-30T12:05:44.646Z,36.23
2019-03-30T12:08:13.832Z,35.38
2019-03-30T12:10:42.653Z,36.83
2019-03-30T12:13:11.385Z,36.31
2019-03-30T12:15:40.607Z,37.52
2019-03-30T12:18:12.068Z,38.56
2019-03-30T12:20:40.798Z,36.37
2019-03-30T12:23:09.691Z,33.98
2019-03-30T12:25:38.433Z,33.61
2019-03-30T12:28:07.173Z,32.99
2019-03-30T12:30:35.944Z,33.88
2019-03-30T12:33:04.685Z,36.21
2019-03-30T12:35:33.419Z,33.77
2019-03-30T12:38:02.278Z,34.06
2019-03-30T12:40:30.996Z,34.94
2019-03-30T12:43:01.917Z,33.52
2019-03-30T12:45:30.949Z,32.73
2019-03-30T12:48:04.226Z,33.01
2019-03-30T12:51:27.154Z,34.49
2019-03-30T12:53:55.894Z,34.93
2019-03-30T12:56:25.145Z,32.81
2019-03-30T12:58:56.910Z,31.66
2019-03-30T13:01:25.717Z,32.26
2019-03-30T13:03:54.936Z,32.81
2019-03-30T13:06:23.678Z,32.23
2019-03-30T13:08:52.452Z,33.05
2019-03-30T13:11:21.284Z,31.81
2019-03-30T13:13:50.040Z,33.51
2019-03-30T13:16:18.771Z,32.94
2019-03-30T13:18:47.631Z,32.43
2019-03-30T13:21:17.820Z,32.45
2019-03-30T13:23:46.537Z,32.78
2019-03-30T13:26:31.080Z,32.95
2019-03-30T13:28:59.792Z,32.28
2019-03-30T13:31:31.220Z,33.01
2019-03-30T13:36:42.771Z,32.90
2019-03-30T13:39:12.001Z,33.47
2019-03-30T13:41:40.736Z,34.32
2019-03-30T13:44:11.279Z,32.63
2019-03-30T13:46:39.995Z,32.09
2019-03-30T13:49:08.730Z,32.04
2019-03-30T13:51:37.572Z,32.91
2019-03-30T13:54:06.310Z,32.70
2019-03-30T13:56:35.042Z,31.42
2019-03-30T13:59:03.906Z,32.77
2019-03-30T14:01:32.762Z,31.28
2019-03-30T14:04:12.890Z,31.60
2019-03-30T14:06:41.886Z,33.56
2019-03-30T14:09:10.626Z,32.91
2019-03-30T14:11:39.368Z,32.69
2019-03-30T14:14:08.250Z,32.57
2019-03-30T14:16:36.991Z,32.97
2019-03-30T14:19:05.729Z,32.94
2019-03-30T14:21:34.518Z,32.57
2019-03-30T14:24:06.036Z,33.04
2019-03-30T14:26:34.786Z,31.18
2019-03-30T14:29:05.914Z,30.69
2019-03-30T14:31:34.653Z,30.41
2019-03-30T14:34:03.435Z,32.27
2019-03-30T14:36:32.346Z,31.00
2019-03-30T14:39:01.135Z,31.57
2019-03-30T14:41:29.870Z,33.08
2019-03-30T14:43:58.696Z,31.57
2019-03-30T14:46:27.416Z,31.98
2019-03-30T14:48:56.171Z,31.74
2019-03-30T14:51:27.982Z,32.07
2019-03-30T14:53:56.704Z,32.80
2019-03-30T14:56:25.442Z,32.11
2019-03-30T14:58:54.221Z,32.08
2019-03-30T15:01:27.129Z,33.66
2019-03-30T15:03:58.816Z,32.63
2019-03-30T15:06:27.575Z,34.32
2019-03-30T15:08:57.786Z,32.80
2019-03-30T15:11:26.664Z,34.15
2019-03-30T15:13:55.404Z,33.12
2019-03-30T15:16:24.137Z,35.13
2019-03-30T15:18:52.927Z,34.66
2019-03-30T15:21:21.664Z,34.32
2019-03-30T15:23:50.386Z,34.19
2019-03-30T15:26:21.928Z,34.59
2019-03-30T15:28:49.742Z,34.56
2019-03-30T15:31:18.470Z,34.25
2019-03-30T15:33:47.293Z,34.87
2019-03-30T15:36:16.029Z,35.68
2019-03-30T15:38:44.756Z,35.94
2019-03-30T15:41:13.535Z,36.03
2019-03-30T15:43:42.265Z,36.36
2019-03-30T15:46:14.292Z,37.79
2019-03-30T15:48:41.598Z,38.73
2019-03-30T15:51:10.346Z,38.90
2019-03-30T15:53:39.091Z,39.06
2019-03-30T15:56:07.965Z,38.48
2019-03-30T15:58:36.718Z,38.58
2019-03-30T16:01:05.455Z,38.51
2019-03-30T16:03:34.230Z,39.29
2019-03-30T16:06:02.954Z,39.76
2019-03-30T16:08:31.695Z,40.12
2019-03-30T16:11:00.786Z,40.08
2019-03-30T16:13:29.516Z,39.75
2019-03-30T16:15:58.250Z,40.88
2019-03-30T16:18:27.049Z,41.62
2019-03-30T16:20:55.769Z,42.71
2019-03-30T16:23:24.500Z,42.76
2019-03-30T16:25:53.679Z,43.70
2019-03-30T16:28:22.419Z,44.61
2019-03-30T16:30:51.163Z,45.71
2019-03-30T16:33:19.967Z,45.76
2019-03-30T16:35:48.704Z,46.21
2019-03-30T16:38:17.437Z,47.15
2019-03-30T16:40:46.308Z,48.49
2019-03-30T16:43:15.050Z,49.29
2019-03-30T16:45:43.780Z,49.61
2019-03-30T16:48:19.980Z,50.47
2019-03-30T16:50:48.806Z,50.88
2019-03-30T16:53:17.566Z,51.52
2019-03-30T16:55:46.305Z,51.63
2019-03-30T16:58:15.032Z,52.20
2019-03-30T17:00:56.242Z,52.23
2019-03-30T17:03:14.629Z,52.32
2019-03-30T17:05:43.362Z,52.43
2019-03-30T17:08:12.134Z,53.37
2019-03-30T17:10:40.859Z,54.46
2019-03-30T17:13:09.602Z,54.79
2019-03-30T17:15:38.497Z,55.12
2019-03-30T17:18:07.254Z,55.53
2019-03-30T17:20:36.000Z,55.28
2019-03-30T17:23:05.129Z,55.49
2019-03-30T17:25:33.854Z,56.14
2019-03-30T17:28:02.582Z,55.58
2019-03-30T17:30:31.470Z,54.77
2019-03-30T17:33:00.197Z,53.58
2019-03-30T17:35:28.933Z,54.01
2019-03-30T17:37:57.974Z,54.27
2019-03-30T17:40:26.711Z,54.74
2019-03-30T17:42:55.443Z,55.07
2019-03-30T17:45:24.443Z,55.28
2019-03-30T17:47:53.176Z,54.50
2019-03-30T17:50:21.922Z,54.25
2019-03-30T17:52:50.713Z,53.82
2019-03-30T17:55:32.773Z,53.88
2019-03-30T17:57:49.909Z,53.78
2019-03-30T18:00:22.090Z,53.95
2019-03-30T18:02:50.814Z,55.32
2019-03-30T18:05:19.534Z,56.36
2019-03-30T18:07:48.297Z,57.50
2019-03-30T18:10:17.430Z,57.80
2019-03-30T18:12:46.162Z,58.33
2019-03-30T18:15:15.400Z,59.33
2019-03-30T18:17:44.123Z,59.17
2019-03-30T18:20:12.944Z,58.83
2019-03-30T18:22:41.738Z,58.27
2019-03-30T18:25:10.559Z,58.05
2019-03-30T18:27:39.282Z,56.15
2019-03-30T18:30:09.950Z,55.26
2019-03-30T18:32:38.681Z,56.18
2019-03-30T18:35:07.731Z,57.41
2019-03-30T18:37:37.800Z,58.61
2019-03-30T18:40:07.920Z,58.73
2019-03-30T18:42:36.658Z,58.98
2019-03-30T18:45:07.490Z,59.59
2019-03-30T18:47:36.222Z,59.75
2019-03-30T18:50:07.240Z,60.27
2019-03-30T18:52:37.415Z,60.28
2019-03-30T18:55:07.456Z,60.29
2019-03-30T18:57:36.165Z,61.32
2019-03-30T19:00:07.441Z,60.53
2019-03-30T19:02:36.173Z,62.68
2019-03-30T19:05:06.302Z,63.54
2019-03-30T19:07:35.121Z,63.64
2019-03-30T19:10:04.646Z,64.12
2019-03-30T19:12:33.375Z,64.54
2019-03-30T19:15:02.248Z,64.90
2019-03-30T19:17:30.973Z,64.81
2019-03-30T19:19:59.703Z,65.58
2019-03-30T19:22:28.721Z,66.03
2019-03-30T19:24:57.451Z,66.22
2019-03-30T19:27:26.174Z,66.04
2019-03-30T19:29:54.960Z,65.27
2019-03-30T19:32:23.691Z,64.54
2019-03-30T19:34:52.413Z,64.40
2019-03-30T19:37:21.361Z,63.63
2019-03-30T19:39:50.092Z,64.54
2019-03-30T19:42:20.259Z,64.70
2019-03-30T19:44:49.127Z,64.96
2019-03-30T19:47:17.857Z,65.53
2019-03-30T19:49:46.594Z,65.85
2019-03-30T19:52:15.386Z,66.36
2019-03-30T19:54:44.107Z,66.81
2019-03-30T19:57:12.841Z,66.33
2019-03-30T19:59:41.886Z,66.18
2019-03-30T20:02:10.732Z,66.37
2019-03-30T20:04:39.508Z,66.56
2019-03-30T20:07:08.668Z,67.01
2019-03-30T20:09:37.415Z,67.47
2019-03-30T20:12:06.374Z,68.26
2019-03-30T20:14:35.272Z,68.87
2019-03-30T20:17:04.194Z,68.80
2019-03-30T20:19:32.918Z,68.89
2019-03-30T20:22:01.717Z,69.40
2019-03-30T20:24:30.447Z,69.75
2019-03-30T20:26:59.179Z,69.73
2019-03-30T20:29:28.067Z,69.07
2019-03-30T20:31:59.833Z,69.13
2019-03-30T20:34:28.557Z,69.87
2019-03-30T20:36:57.373Z,70.08
2019-03-30T20:39:26.446Z,70.39
2019-03-30T20:41:55.153Z,70.81
2019-03-30T20:44:23.994Z,68.53
2019-03-30T20:46:52.724Z,69.25
2019-03-30T20:49:21.458Z,70.35
2019-03-30T20:51:50.618Z,70.87
2019-03-30T20:54:20.557Z,71.33
2019-03-30T20:56:49.249Z,71.56
2019-03-30T20:59:18.338Z,72.02
2019-03-30T21:01:47.061Z,72.69
2019-03-30T21:04:15.797Z,73.31
2019-03-30T21:06:44.550Z,73.64
2019-03-30T21:09:13.274Z,72.74
2019-03-30T21:11:42.003Z,73.34
2019-03-30T21:14:10.950Z,74.06
2019-03-30T21:16:39.675Z,74.37
2019-03-30T21:19:08.404Z,75.12
2019-03-30T21:21:37.272Z,75.79
2019-03-30T21:24:05.996Z,76.29
2019-03-30T21:26:34.723Z,75.94
2019-03-30T21:29:03.485Z,75.93
2019-03-30T21:31:32.210Z,76.29
2019-03-30T21:34:00.936Z,77.19
2019-03-30T21:36:29.707Z,77.75
2019-03-30T21:38:58.419Z,77.35
2019-03-30T21:41:27.142Z,76.72
2019-03-30T21:43:56.105Z,76.03
2019-03-30T21:46:24.834Z,75.66
2019-03-30T21:48:53.556Z,74.75
2019-03-30T21:51:22.413Z,74.19
2019-03-30T21:53:51.136Z,74.10
2019-03-30T21:56:19.866Z,74.13
2019-03-30T21:58:49.117Z,74.19
2019-03-30T22:01:17.829Z,74.74
2019-03-30T22:03:46.552Z,74.81
2019-03-30T22:06:15.324Z,75.01
2019-03-30T22:08:44.144Z,74.88
2019-03-30T22:11:12.873Z,74.27
2019-03-30T22:13:41.749Z,74.22
2019-03-30T22:16:10.472Z,73.89
2019-03-30T22:18:39.200Z,73.37
2019-03-30T22:21:08.397Z,72.94
2019-03-30T22:23:37.122Z,72.84
2019-03-30T22:26:06.012Z,72.89
2019-03-30T22:28:34.830Z,72.74
2019-03-30T22:31:03.551Z,72.19
2019-03-30T22:33:32.274Z,72.07
2019-03-30T22:36:01.085Z,72.03
2019-03-30T22:38:29.816Z,71.10
2019-03-30T22:40:58.550Z,71.03
2019-03-30T22:43:27.665Z,71.59
2019-03-30T22:45:56.402Z,72.23
2019-03-30T22:48:25.118Z,72.13
2019-03-30T22:50:53.929Z,72.28
2019-03-30T22:53:22.658Z,72.32
2019-03-30T22:55:51.386Z,72.04
2019-03-30T22:58:20.268Z,72.03
2019-03-30T23:00:56.479Z,71.56
2019-03-30T23:03:25.243Z,71.41
2019-03-30T23:05:53.973Z,71.76
2019-03-30T23:08:22.692Z,71.83
2019-03-30T23:10:51.544Z,72.03
2019-03-30T23:13:20.274Z,72.41
2019-03-30T23:15:49.003Z,72.34
2019-03-30T23:18:17.762Z,72.01
2019-03-30T23:20:46.491Z,72.29
2019-03-30T23:23:15.213Z,72.68
2019-03-30T23:25:44.020Z,73.25
2019-03-30T23:28:12.751Z,73.86
2019-03-30T23:30:53.716Z,74.35
2019-03-30T23:33:12.090Z,74.27
2019-03-30T23:35:40.813Z,74.44
2019-03-30T23:38:09.536Z,74.51
2019-03-30T23:40:38.506Z,74.43
2019-03-30T23:43:07.239Z,74.49
2019-03-30T23:45:35.970Z,74.12
2019-03-30T23:48:04.846Z,73.90
2019-03-30T23:50:33.574Z,73.88
2019-03-30T23:53:02.295Z,73.89
2019-03-30T23:55:31.068Z,74.12
2019-03-30T23:57:59.804Z,74.37
